Weather at Schwaz Heliport

Public forecast

Using degrees Celsius for public forecast. Weather courtesy of forecast.io.

Closest aviation weather report (METAR) to Schwaz Heliport

Closest report is Innsbruck Airport, 15.6 nm (28.8 km) WSW. Retrieved 2021/06/21 09:20 UTC (37 minutes ago):

LOWI 210920Z VRB03KT 9999 FEW060 27/15 Q1009 BECMG 09009KT

Closest aviation forecast (TAF) to Schwaz Heliport

Closest forecast is Innsbruck Airport, 15.6 nm (28.8 km) WSW. Retrieved 2021/06/21 06:21 UTC (4 hours ago):

TAF TAF LOWI 210515Z 2106/2206 27007KT 9999 FEW060 TX29/2113Z TN18/2124Z BECMG 2109/2111 10010KT TEMPO 2112/2122 SCT070 FEW070CB PROB30 TEMPO 2114/2120 VRB20G30KT TS BECMG 2118/2120 27006KT